sensor_id;sensor_type;location;lat;lon;timestamp;P1;durP1;ratioP1;P2;durP2;ratioP2
11957;SDS011;6039;52.576;13.348;2023-04-16T00:01:47;14.77;;;10.27;;
11957;SDS011;6039;52.576;13.348;2023-04-16T00:06:53;17.40;;;11.47;;
11957;SDS011;6039;52.576;13.348;2023-04-16T00:11:57;16.83;;;10.30;;
11957;SDS011;6039;52.576;13.348;2023-04-16T00:17:01;16.83;;;11.23;;
11957;SDS011;6039;52.576;13.348;2023-04-16T00:22:08;17.00;;;11.73;;
11957;SDS011;6039;52.576;13.348;2023-04-16T00:27:12;19.13;;;11.87;;
11957;SDS011;6039;52.576;13.348;2023-04-16T00:32:16;19.20;;;11.23;;
11957;SDS011;6039;52.576;13.348;2023-04-16T00:37:22;15.97;;;10.27;;
11957;SDS011;6039;52.576;13.348;2023-04-16T00:42:26;15.97;;;10.43;;
11957;SDS011;6039;52.576;13.348;2023-04-16T00:47:30;15.00;;;10.63;;
11957;SDS011;6039;52.576;13.348;2023-04-16T00:52:37;17.13;;;10.63;;
11957;SDS011;6039;52.576;13.348;2023-04-16T00:57:41;15.13;;;10.77;;
11957;SDS011;6039;52.576;13.348;2023-04-16T01:02:45;16.97;;;10.73;;
11957;SDS011;6039;52.576;13.348;2023-04-16T01:07:51;17.53;;;10.50;;
11957;SDS011;6039;52.576;13.348;2023-04-16T01:12:55;14.03;;;9.57;;
11957;SDS011;6039;52.576;13.348;2023-04-16T01:17:59;15.47;;;9.93;;
11957;SDS011;6039;52.576;13.348;2023-04-16T01:23:06;16.17;;;10.70;;
11957;SDS011;6039;52.576;13.348;2023-04-16T01:28:10;15.20;;;10.50;;
11957;SDS011;6039;52.576;13.348;2023-04-16T01:33:14;16.60;;;11.07;;
11957;SDS011;6039;52.576;13.348;2023-04-16T01:38:22;15.77;;;10.20;;
11957;SDS011;6039;52.576;13.348;2023-04-16T01:43:26;16.40;;;10.00;;
11957;SDS011;6039;52.576;13.348;2023-04-16T01:48:30;15.37;;;10.13;;
11957;SDS011;6039;52.576;13.348;2023-04-16T01:53:36;15.77;;;10.37;;
11957;SDS011;6039;52.576;13.348;2023-04-16T01:58:40;15.47;;;10.33;;
11957;SDS011;6039;52.576;13.348;2023-04-16T02:03:46;16.07;;;10.17;;
11957;SDS011;6039;52.576;13.348;2023-04-16T02:08:52;15.20;;;9.93;;
11957;SDS011;6039;52.576;13.348;2023-04-16T02:13:56;16.13;;;10.50;;
11957;SDS011;6039;52.576;13.348;2023-04-16T02:19:00;17.03;;;10.60;;
11957;SDS011;6039;52.576;13.348;2023-04-16T02:24:07;16.47;;;11.07;;
11957;SDS011;6039;52.576;13.348;2023-04-16T02:29:11;18.80;;;10.60;;
11957;SDS011;6039;52.576;13.348;2023-04-16T02:34:15;18.03;;;10.67;;
11957;SDS011;6039;52.576;13.348;2023-04-16T02:39:22;18.50;;;11.70;;
11957;SDS011;6039;52.576;13.348;2023-04-16T02:44:26;20.37;;;11.87;;
11957;SDS011;6039;52.576;13.348;2023-04-16T02:49:30;16.43;;;11.13;;
11957;SDS011;6039;52.576;13.348;2023-04-16T02:54:37;17.43;;;10.80;;
11957;SDS011;6039;52.576;13.348;2023-04-16T02:59:41;18.67;;;12.07;;
11957;SDS011;6039;52.576;13.348;2023-04-16T03:04:45;18.87;;;11.73;;
11957;SDS011;6039;52.576;13.348;2023-04-16T03:09:52;19.60;;;11.23;;
11957;SDS011;6039;52.576;13.348;2023-04-16T03:14:56;19.83;;;11.60;;
11957;SDS011;6039;52.576;13.348;2023-04-16T03:20:00;17.20;;;11.43;;
11957;SDS011;6039;52.576;13.348;2023-04-16T03:25:07;17.03;;;11.07;;
11957;SDS011;6039;52.576;13.348;2023-04-16T03:30:11;17.27;;;10.50;;
11957;SDS011;6039;52.576;13.348;2023-04-16T03:35:15;18.33;;;10.17;;
11957;SDS011;6039;52.576;13.348;2023-04-16T03:40:22;17.73;;;9.87;;
11957;SDS011;6039;52.576;13.348;2023-04-16T03:45:26;18.40;;;10.40;;
11957;SDS011;6039;52.576;13.348;2023-04-16T03:50:30;15.50;;;9.97;;
11957;SDS011;6039;52.576;13.348;2023-04-16T03:55:37;14.57;;;9.90;;
11957;SDS011;6039;52.576;13.348;2023-04-16T04:00:41;16.97;;;10.60;;
11957;SDS011;6039;52.576;13.348;2023-04-16T04:05:45;15.73;;;10.63;;
11957;SDS011;6039;52.576;13.348;2023-04-16T04:10:52;17.43;;;11.80;;
11957;SDS011;6039;52.576;13.348;2023-04-16T04:15:56;18.17;;;11.43;;
11957;SDS011;6039;52.576;13.348;2023-04-16T04:21:03;19.07;;;11.03;;
11957;SDS011;6039;52.576;13.348;2023-04-16T04:26:10;19.60;;;11.03;;
11957;SDS011;6039;52.576;13.348;2023-04-16T04:31:14;19.27;;;11.70;;
11957;SDS011;6039;52.576;13.348;2023-04-16T04:36:18;19.37;;;12.17;;
11957;SDS011;6039;52.576;13.348;2023-04-16T04:41:24;17.90;;;10.37;;
11957;SDS011;6039;52.576;13.348;2023-04-16T04:46:28;18.53;;;11.37;;
11957;SDS011;6039;52.576;13.348;2023-04-16T04:51:32;21.03;;;11.83;;
11957;SDS011;6039;52.576;13.348;2023-04-16T04:56:39;17.00;;;10.50;;
11957;SDS011;6039;52.576;13.348;2023-04-16T05:01:44;17.37;;;10.20;;
11957;SDS011;6039;52.576;13.348;2023-04-16T05:06:48;16.17;;;10.80;;
11957;SDS011;6039;52.576;13.348;2023-04-16T05:11:54;19.03;;;10.87;;
11957;SDS011;6039;52.576;13.348;2023-04-16T05:16:59;16.07;;;10.27;;
11957;SDS011;6039;52.576;13.348;2023-04-16T05:22:03;16.13;;;10.43;;
11957;SDS011;6039;52.576;13.348;2023-04-16T05:27:09;17.77;;;10.67;;
11957;SDS011;6039;52.576;13.348;2023-04-16T05:32:13;16.27;;;10.60;;
11957;SDS011;6039;52.576;13.348;2023-04-16T05:37:18;18.50;;;10.77;;
11957;SDS011;6039;52.576;13.348;2023-04-16T05:42:24;16.53;;;10.17;;
11957;SDS011;6039;52.576;13.348;2023-04-16T05:47:28;14.40;;;9.23;;
11957;SDS011;6039;52.576;13.348;2023-04-16T05:52:32;15.97;;;10.27;;
11957;SDS011;6039;52.576;13.348;2023-04-16T05:57:39;14.93;;;9.63;;
11957;SDS011;6039;52.576;13.348;2023-04-16T06:02:42;15.93;;;9.80;;
11957;SDS011;6039;52.576;13.348;2023-04-16T06:07:46;19.83;;;10.77;;
11957;SDS011;6039;52.576;13.348;2023-04-16T06:12:53;15.40;;;10.17;;
11957;SDS011;6039;52.576;13.348;2023-04-16T06:17:57;17.07;;;9.87;;
11957;SDS011;6039;52.576;13.348;2023-04-16T06:23:01;17.10;;;10.50;;
11957;SDS011;6039;52.576;13.348;2023-04-16T06:28:07;18.13;;;11.03;;
11957;SDS011;6039;52.576;13.348;2023-04-16T06:33:11;14.90;;;9.50;;
11957;SDS011;6039;52.576;13.348;2023-04-16T06:38:15;16.93;;;9.57;;
11957;SDS011;6039;52.576;13.348;2023-04-16T06:43:22;16.70;;;10.70;;
11957;SDS011;6039;52.576;13.348;2023-04-16T06:48:26;19.30;;;10.07;;
11957;SDS011;6039;52.576;13.348;2023-04-16T06:53:30;18.33;;;10.97;;
11957;SDS011;6039;52.576;13.348;2023-04-16T06:58:39;30.90;;;16.40;;
11957;SDS011;6039;52.576;13.348;2023-04-16T07:03:42;19.63;;;10.93;;
11957;SDS011;6039;52.576;13.348;2023-04-16T07:08:47;17.03;;;10.77;;
11957;SDS011;6039;52.576;13.348;2023-04-16T07:13:54;18.17;;;9.77;;
11957;SDS011;6039;52.576;13.348;2023-04-16T07:18:58;17.23;;;9.67;;
11957;SDS011;6039;52.576;13.348;2023-04-16T07:24:02;16.50;;;10.10;;
11957;SDS011;6039;52.576;13.348;2023-04-16T07:29:09;17.73;;;10.07;;
11957;SDS011;6039;52.576;13.348;2023-04-16T07:34:13;25.00;;;14.80;;
11957;SDS011;6039;52.576;13.348;2023-04-16T07:39:17;23.00;;;12.73;;
11957;SDS011;6039;52.576;13.348;2023-04-16T07:44:23;17.23;;;10.33;;
11957;SDS011;6039;52.576;13.348;2023-04-16T07:49:27;18.63;;;10.30;;
11957;SDS011;6039;52.576;13.348;2023-04-16T07:54:31;18.03;;;10.23;;
11957;SDS011;6039;52.576;13.348;2023-04-16T07:59:38;18.67;;;9.63;;
11957;SDS011;6039;52.576;13.348;2023-04-16T08:04:42;15.97;;;9.53;;
11957;SDS011;6039;52.576;13.348;2023-04-16T08:09:46;14.50;;;9.33;;
11957;SDS011;6039;52.576;13.348;2023-04-16T08:14:54;13.10;;;9.20;;
11957;SDS011;6039;52.576;13.348;2023-04-16T08:19:58;18.47;;;9.50;;
11957;SDS011;6039;52.576;13.348;2023-04-16T08:25:02;14.70;;;8.83;;
11957;SDS011;6039;52.576;13.348;2023-04-16T08:30:09;16.57;;;8.37;;
11957;SDS011;6039;52.576;13.348;2023-04-16T08:35:15;15.77;;;8.27;;
11957;SDS011;6039;52.576;13.348;2023-04-16T08:40:19;13.00;;;8.23;;
11957;SDS011;6039;52.576;13.348;2023-04-16T08:45:26;15.00;;;8.70;;
11957;SDS011;6039;52.576;13.348;2023-04-16T08:50:30;14.17;;;8.43;;
11957;SDS011;6039;52.576;13.348;2023-04-16T08:55:37;13.17;;;8.23;;
11957;SDS011;6039;52.576;13.348;2023-04-16T09:00:47;13.20;;;8.40;;
11957;SDS011;6039;52.576;13.348;2023-04-16T09:05:51;14.73;;;8.37;;
11957;SDS011;6039;52.576;13.348;2023-04-16T09:10:56;16.40;;;8.17;;
11957;SDS011;6039;52.576;13.348;2023-04-16T09:16:04;10.93;;;8.00;;
11957;SDS011;6039;52.576;13.348;2023-04-16T09:21:09;12.40;;;8.13;;
11957;SDS011;6039;52.576;13.348;2023-04-16T09:26:13;12.83;;;8.00;;
11957;SDS011;6039;52.576;13.348;2023-04-16T09:31:20;12.23;;;8.73;;
11957;SDS011;6039;52.576;13.348;2023-04-16T09:36:24;12.20;;;7.93;;
11957;SDS011;6039;52.576;13.348;2023-04-16T09:41:28;15.30;;;8.83;;
11957;SDS011;6039;52.576;13.348;2023-04-16T09:46:39;14.33;;;8.57;;
11957;SDS011;6039;52.576;13.348;2023-04-16T09:51:44;14.27;;;8.90;;
11957;SDS011;6039;52.576;13.348;2023-04-16T09:56:55;17.47;;;9.23;;
11957;SDS011;6039;52.576;13.348;2023-04-16T10:02:02;13.43;;;8.90;;
11957;SDS011;6039;52.576;13.348;2023-04-16T10:07:06;17.57;;;10.60;;
11957;SDS011;6039;52.576;13.348;2023-04-16T10:12:11;14.10;;;9.30;;
11957;SDS011;6039;52.576;13.348;2023-04-16T10:17:17;14.73;;;8.97;;
11957;SDS011;6039;52.576;13.348;2023-04-16T10:22:22;15.10;;;9.70;;
11957;SDS011;6039;52.576;13.348;2023-04-16T10:27:27;14.13;;;8.90;;
11957;SDS011;6039;52.576;13.348;2023-04-16T10:32:34;16.17;;;9.63;;
11957;SDS011;6039;52.576;13.348;2023-04-16T10:37:39;18.67;;;10.27;;
11957;SDS011;6039;52.576;13.348;2023-04-16T10:42:49;19.47;;;10.60;;
11957;SDS011;6039;52.576;13.348;2023-04-16T10:48:05;16.03;;;9.53;;
11957;SDS011;6039;52.576;13.348;2023-04-16T10:53:17;14.00;;;9.37;;
11957;SDS011;6039;52.576;13.348;2023-04-16T10:58:28;15.30;;;9.00;;
11957;SDS011;6039;52.576;13.348;2023-04-16T11:03:35;12.07;;;8.17;;
11957;SDS011;6039;52.576;13.348;2023-04-16T11:08:43;11.30;;;7.43;;
11957;SDS011;6039;52.576;13.348;2023-04-16T11:13:47;13.57;;;8.57;;
11957;SDS011;6039;52.576;13.348;2023-04-16T11:18:56;13.10;;;8.60;;
11957;SDS011;6039;52.576;13.348;2023-04-16T11:24:00;11.33;;;7.40;;
11957;SDS011;6039;52.576;13.348;2023-04-16T11:29:11;10.23;;;7.67;;
11957;SDS011;6039;52.576;13.348;2023-04-16T11:34:19;11.20;;;7.17;;
11957;SDS011;6039;52.576;13.348;2023-04-16T11:39:23;10.60;;;6.80;;
11957;SDS011;6039;52.576;13.348;2023-04-16T11:44:27;10.23;;;6.83;;
11957;SDS011;6039;52.576;13.348;2023-04-16T11:49:34;9.13;;;6.90;;
11957;SDS011;6039;52.576;13.348;2023-04-16T11:54:38;10.43;;;6.93;;
11957;SDS011;6039;52.576;13.348;2023-04-16T11:59:44;9.43;;;6.80;;
11957;SDS011;6039;52.576;13.348;2023-04-16T12:04:52;10.27;;;6.83;;
11957;SDS011;6039;52.576;13.348;2023-04-16T12:10:03;7.70;;;5.47;;
11957;SDS011;6039;52.576;13.348;2023-04-16T12:15:11;7.63;;;5.90;;
11957;SDS011;6039;52.576;13.348;2023-04-16T12:20:18;7.77;;;5.70;;
11957;SDS011;6039;52.576;13.348;2023-04-16T12:25:21;8.37;;;5.83;;
11957;SDS011;6039;52.576;13.348;2023-04-16T12:30:27;9.40;;;5.83;;
11957;SDS011;6039;52.576;13.348;2023-04-16T12:35:33;7.57;;;5.90;;
11957;SDS011;6039;52.576;13.348;2023-04-16T12:40:38;8.20;;;5.70;;
11957;SDS011;6039;52.576;13.348;2023-04-16T12:45:42;8.33;;;5.63;;
11957;SDS011;6039;52.576;13.348;2023-04-16T12:50:48;9.50;;;6.33;;
11957;SDS011;6039;52.576;13.348;2023-04-16T12:55:54;10.27;;;6.23;;
11957;SDS011;6039;52.576;13.348;2023-04-16T13:00:58;9.00;;;6.07;;
11957;SDS011;6039;52.576;13.348;2023-04-16T13:06:06;10.47;;;6.33;;
11957;SDS011;6039;52.576;13.348;2023-04-16T13:11:10;11.00;;;5.80;;
11957;SDS011;6039;52.576;13.348;2023-04-16T13:16:15;8.20;;;6.17;;
11957;SDS011;6039;52.576;13.348;2023-04-16T13:21:21;9.00;;;6.60;;
11957;SDS011;6039;52.576;13.348;2023-04-16T13:26:26;7.50;;;6.00;;
11957;SDS011;6039;52.576;13.348;2023-04-16T13:31:30;10.03;;;6.30;;
11957;SDS011;6039;52.576;13.348;2023-04-16T13:36:36;9.20;;;6.40;;
11957;SDS011;6039;52.576;13.348;2023-04-16T13:41:40;11.30;;;6.60;;
11957;SDS011;6039;52.576;13.348;2023-04-16T13:46:44;8.70;;;5.90;;
11957;SDS011;6039;52.576;13.348;2023-04-16T13:51:51;7.20;;;5.40;;
11957;SDS011;6039;52.576;13.348;2023-04-16T13:56:55;10.20;;;5.83;;
11957;SDS011;6039;52.576;13.348;2023-04-16T14:01:59;8.77;;;6.27;;
11957;SDS011;6039;52.576;13.348;2023-04-16T14:07:06;8.77;;;5.60;;
11957;SDS011;6039;52.576;13.348;2023-04-16T14:12:10;7.33;;;5.17;;
11957;SDS011;6039;52.576;13.348;2023-04-16T14:17:15;7.57;;;5.30;;
11957;SDS011;6039;52.576;13.348;2023-04-16T14:22:22;7.63;;;5.17;;
11957;SDS011;6039;52.576;13.348;2023-04-16T14:27:26;5.50;;;4.40;;
11957;SDS011;6039;52.576;13.348;2023-04-16T14:32:31;6.80;;;4.27;;
11957;SDS011;6039;52.576;13.348;2023-04-16T14:37:38;7.27;;;4.67;;
11957;SDS011;6039;52.576;13.348;2023-04-16T14:42:42;6.07;;;4.10;;
11957;SDS011;6039;52.576;13.348;2023-04-16T14:47:46;5.80;;;4.13;;
11957;SDS011;6039;52.576;13.348;2023-04-16T14:52:53;5.57;;;4.10;;
11957;SDS011;6039;52.576;13.348;2023-04-16T14:57:57;5.60;;;4.30;;
11957;SDS011;6039;52.576;13.348;2023-04-16T15:03:01;5.93;;;4.40;;
11957;SDS011;6039;52.576;13.348;2023-04-16T15:08:08;5.43;;;4.07;;
11957;SDS011;6039;52.576;13.348;2023-04-16T15:13:12;8.07;;;4.13;;
11957;SDS011;6039;52.576;13.348;2023-04-16T15:18:16;7.10;;;5.43;;
11957;SDS011;6039;52.576;13.348;2023-04-16T15:23:22;6.87;;;5.13;;
11957;SDS011;6039;52.576;13.348;2023-04-16T15:28:26;8.63;;;5.60;;
11957;SDS011;6039;52.576;13.348;2023-04-16T15:33:30;6.87;;;5.07;;
11957;SDS011;6039;52.576;13.348;2023-04-16T15:38:37;7.77;;;5.63;;
11957;SDS011;6039;52.576;13.348;2023-04-16T15:43:41;8.37;;;5.73;;
11957;SDS011;6039;52.576;13.348;2023-04-16T15:48:45;10.00;;;6.87;;
11957;SDS011;6039;52.576;13.348;2023-04-16T15:53:51;9.57;;;6.27;;
11957;SDS011;6039;52.576;13.348;2023-04-16T15:58:56;9.20;;;6.47;;
11957;SDS011;6039;52.576;13.348;2023-04-16T16:04:00;7.87;;;5.37;;
11957;SDS011;6039;52.576;13.348;2023-04-16T16:09:07;7.93;;;5.40;;
11957;SDS011;6039;52.576;13.348;2023-04-16T16:14:12;9.67;;;5.73;;
11957;SDS011;6039;52.576;13.348;2023-04-16T16:19:16;6.73;;;4.73;;
11957;SDS011;6039;52.576;13.348;2023-04-16T16:24:22;8.30;;;5.47;;
11957;SDS011;6039;52.576;13.348;2023-04-16T16:29:27;6.90;;;5.37;;
11957;SDS011;6039;52.576;13.348;2023-04-16T16:34:31;7.87;;;5.63;;
11957;SDS011;6039;52.576;13.348;2023-04-16T16:39:37;7.33;;;5.50;;
11957;SDS011;6039;52.576;13.348;2023-04-16T16:44:41;7.53;;;5.50;;
11957;SDS011;6039;52.576;13.348;2023-04-16T16:49:46;6.93;;;5.03;;
11957;SDS011;6039;52.576;13.348;2023-04-16T16:54:54;6.00;;;4.87;;
11957;SDS011;6039;52.576;13.348;2023-04-16T16:59:58;6.73;;;4.90;;
11957;SDS011;6039;52.576;13.348;2023-04-16T17:05:07;7.63;;;5.13;;
11957;SDS011;6039;52.576;13.348;2023-04-16T17:10:14;7.83;;;5.50;;
11957;SDS011;6039;52.576;13.348;2023-04-16T17:15:19;7.83;;;5.10;;
11957;SDS011;6039;52.576;13.348;2023-04-16T17:20:23;8.17;;;5.40;;
11957;SDS011;6039;52.576;13.348;2023-04-16T17:25:30;7.10;;;4.97;;
11957;SDS011;6039;52.576;13.348;2023-04-16T17:30:34;6.77;;;4.90;;
11957;SDS011;6039;52.576;13.348;2023-04-16T17:35:38;6.30;;;4.70;;
11957;SDS011;6039;52.576;13.348;2023-04-16T17:40:44;8.33;;;5.23;;
11957;SDS011;6039;52.576;13.348;2023-04-16T17:45:48;6.53;;;5.07;;
11957;SDS011;6039;52.576;13.348;2023-04-16T17:50:52;6.83;;;4.50;;
11957;SDS011;6039;52.576;13.348;2023-04-16T17:55:59;7.10;;;4.73;;
11957;SDS011;6039;52.576;13.348;2023-04-16T18:01:03;6.80;;;5.13;;
11957;SDS011;6039;52.576;13.348;2023-04-16T18:06:07;7.23;;;5.03;;
11957;SDS011;6039;52.576;13.348;2023-04-16T18:11:14;6.57;;;5.30;;
11957;SDS011;6039;52.576;13.348;2023-04-16T18:16:18;6.40;;;4.77;;
11957;SDS011;6039;52.576;13.348;2023-04-16T18:21:22;9.50;;;5.70;;
11957;SDS011;6039;52.576;13.348;2023-04-16T18:26:31;8.77;;;5.60;;
11957;SDS011;6039;52.576;13.348;2023-04-16T18:31:36;7.07;;;5.20;;
11957;SDS011;6039;52.576;13.348;2023-04-16T18:36:42;6.57;;;4.90;;
11957;SDS011;6039;52.576;13.348;2023-04-16T18:41:49;9.37;;;5.53;;
11957;SDS011;6039;52.576;13.348;2023-04-16T18:46:53;7.70;;;5.13;;
11957;SDS011;6039;52.576;13.348;2023-04-16T18:51:57;6.97;;;5.03;;
11957;SDS011;6039;52.576;13.348;2023-04-16T18:57:06;8.03;;;5.63;;
11957;SDS011;6039;52.576;13.348;2023-04-16T19:02:09;6.23;;;4.90;;
11957;SDS011;6039;52.576;13.348;2023-04-16T19:07:13;8.10;;;5.70;;
11957;SDS011;6039;52.576;13.348;2023-04-16T19:12:20;6.90;;;5.10;;
11957;SDS011;6039;52.576;13.348;2023-04-16T19:17:24;8.53;;;5.60;;
11957;SDS011;6039;52.576;13.348;2023-04-16T19:22:28;7.53;;;5.57;;
11957;SDS011;6039;52.576;13.348;2023-04-16T19:27:35;6.63;;;5.20;;
11957;SDS011;6039;52.576;13.348;2023-04-16T19:32:38;9.80;;;4.97;;
11957;SDS011;6039;52.576;13.348;2023-04-16T19:37:42;6.67;;;5.20;;
11957;SDS011;6039;52.576;13.348;2023-04-16T19:42:49;6.43;;;4.97;;
11957;SDS011;6039;52.576;13.348;2023-04-16T19:47:54;6.93;;;4.73;;
11957;SDS011;6039;52.576;13.348;2023-04-16T19:52:58;9.00;;;5.10;;
11957;SDS011;6039;52.576;13.348;2023-04-16T19:58:04;6.33;;;4.67;;
11957;SDS011;6039;52.576;13.348;2023-04-16T20:03:08;7.10;;;5.10;;
11957;SDS011;6039;52.576;13.348;2023-04-16T20:08:12;5.87;;;4.40;;
11957;SDS011;6039;52.576;13.348;2023-04-16T20:13:19;7.17;;;4.93;;
11957;SDS011;6039;52.576;13.348;2023-04-16T20:18:23;7.97;;;5.73;;
11957;SDS011;6039;52.576;13.348;2023-04-16T20:23:27;6.23;;;4.57;;
11957;SDS011;6039;52.576;13.348;2023-04-16T20:28:34;6.67;;;4.50;;
11957;SDS011;6039;52.576;13.348;2023-04-16T20:33:38;5.80;;;4.03;;
11957;SDS011;6039;52.576;13.348;2023-04-16T20:38:42;6.63;;;4.73;;
11957;SDS011;6039;52.576;13.348;2023-04-16T20:43:48;6.43;;;4.93;;
11957;SDS011;6039;52.576;13.348;2023-04-16T20:48:53;6.47;;;4.10;;
11957;SDS011;6039;52.576;13.348;2023-04-16T20:53:57;7.23;;;4.73;;
11957;SDS011;6039;52.576;13.348;2023-04-16T20:59:04;5.87;;;4.17;;
11957;SDS011;6039;52.576;13.348;2023-04-16T21:04:09;7.07;;;5.10;;
11957;SDS011;6039;52.576;13.348;2023-04-16T21:09:13;6.80;;;4.90;;
11957;SDS011;6039;52.576;13.348;2023-04-16T21:14:20;6.60;;;4.77;;
11957;SDS011;6039;52.576;13.348;2023-04-16T21:19:25;6.47;;;4.53;;
11957;SDS011;6039;52.576;13.348;2023-04-16T21:24:30;6.23;;;4.93;;
11957;SDS011;6039;52.576;13.348;2023-04-16T21:29:36;7.43;;;4.03;;
11957;SDS011;6039;52.576;13.348;2023-04-16T21:34:40;7.80;;;4.80;;
11957;SDS011;6039;52.576;13.348;2023-04-16T21:39:45;6.97;;;4.73;;
11957;SDS011;6039;52.576;13.348;2023-04-16T21:44:51;6.87;;;4.87;;
11957;SDS011;6039;52.576;13.348;2023-04-16T21:49:55;6.83;;;4.53;;
11957;SDS011;6039;52.576;13.348;2023-04-16T21:54:59;6.00;;;4.53;;
11957;SDS011;6039;52.576;13.348;2023-04-16T22:00:07;6.87;;;5.00;;
11957;SDS011;6039;52.576;13.348;2023-04-16T22:05:14;6.53;;;4.70;;
11957;SDS011;6039;52.576;13.348;2023-04-16T22:10:19;8.47;;;4.93;;
11957;SDS011;6039;52.576;13.348;2023-04-16T22:15:25;7.63;;;5.50;;
11957;SDS011;6039;52.576;13.348;2023-04-16T22:20:30;7.03;;;5.03;;
11957;SDS011;6039;52.576;13.348;2023-04-16T22:25:38;7.13;;;5.27;;
11957;SDS011;6039;52.576;13.348;2023-04-16T22:30:44;7.23;;;5.30;;
11957;SDS011;6039;52.576;13.348;2023-04-16T22:35:48;8.60;;;5.63;;
11957;SDS011;6039;52.576;13.348;2023-04-16T22:40:52;9.17;;;5.53;;
11957;SDS011;6039;52.576;13.348;2023-04-16T22:46:02;10.03;;;5.60;;
11957;SDS011;6039;52.576;13.348;2023-04-16T22:51:07;8.57;;;5.67;;
11957;SDS011;6039;52.576;13.348;2023-04-16T22:56:11;7.23;;;5.30;;
11957;SDS011;6039;52.576;13.348;2023-04-16T23:01:17;8.17;;;5.93;;
11957;SDS011;6039;52.576;13.348;2023-04-16T23:06:21;7.70;;;5.37;;
11957;SDS011;6039;52.576;13.348;2023-04-16T23:11:26;7.87;;;5.50;;
11957;SDS011;6039;52.576;13.348;2023-04-16T23:16:32;8.07;;;5.70;;
11957;SDS011;6039;52.576;13.348;2023-04-16T23:21:36;7.53;;;5.43;;
11957;SDS011;6039;52.576;13.348;2023-04-16T23:26:40;8.63;;;5.73;;
11957;SDS011;6039;52.576;13.348;2023-04-16T23:31:47;8.50;;;6.37;;
11957;SDS011;6039;52.576;13.348;2023-04-16T23:36:51;8.50;;;5.77;;
11957;SDS011;6039;52.576;13.348;2023-04-16T23:41:55;8.57;;;6.00;;
11957;SDS011;6039;52.576;13.348;2023-04-16T23:47:01;10.03;;;6.07;;
11957;SDS011;6039;52.576;13.348;2023-04-16T23:52:05;9.47;;;6.53;;
11957;SDS011;6039;52.576;13.348;2023-04-16T23:57:09;9.47;;;6.40;;
